createdAt,value
2023-04-12T00:02:14.298Z,28.92
2023-04-12T00:06:17.332Z,31.20
2023-04-12T00:10:21.314Z,28.75
2023-04-12T00:14:23.879Z,28.35
2023-04-12T00:18:27.317Z,31.13
2023-04-12T00:22:29.948Z,37.00
2023-04-12T00:26:31.939Z,37.22
2023-04-12T00:30:34.376Z,37.90
2023-04-12T00:34:36.434Z,38.65
2023-04-12T00:38:38.434Z,38.60
2023-04-12T00:42:40.470Z,35.55
2023-04-12T00:46:42.625Z,34.35
2023-04-12T00:50:45.056Z,32.83
2023-04-12T00:54:47.308Z,31.88
2023-04-12T00:58:49.629Z,36.55
2023-04-12T01:02:53.141Z,38.03
2023-04-12T01:07:24.561Z,36.42
2023-04-12T01:11:33.360Z,31.75
2023-04-12T01:15:44.495Z,31.55
2023-04-12T01:20:14.357Z,32.92
2023-04-12T01:24:37.781Z,32.63
2023-04-12T01:28:43.634Z,31.67
2023-04-12T01:32:57.719Z,36.95
2023-04-12T01:37:02.451Z,32.78
2023-04-12T01:41:05.726Z,31.60
2023-04-12T01:45:08.322Z,35.97
2023-04-12T01:49:12.942Z,36.08
2023-04-12T01:53:25.548Z,34.03
2023-04-12T01:57:28.120Z,35.50
2023-04-12T02:01:31.074Z,31.83
2023-04-12T02:05:34.111Z,32.75
2023-04-12T02:09:38.052Z,31.20
2023-04-12T02:13:40.470Z,33.15
2023-04-12T02:17:42.466Z,31.70
2023-04-12T02:21:45.735Z,32.97
2023-04-12T02:25:48.428Z,33.50
2023-04-12T02:29:51.950Z,30.35
2023-04-12T02:33:54.245Z,32.40
2023-04-12T02:37:56.487Z,34.05
2023-04-12T02:42:02.623Z,33.55
2023-04-12T02:46:05.395Z,35.50
2023-04-12T02:50:14.735Z,34.67
2023-04-12T02:54:27.035Z,36.42
2023-04-12T02:58:33.696Z,37.72
2023-04-12T03:02:36.226Z,37.35
2023-04-12T03:06:52.360Z,37.78
2023-04-12T03:10:58.082Z,36.28
2023-04-12T03:15:01.816Z,38.03
2023-04-12T03:19:06.812Z,36.42
2023-04-12T03:23:09.349Z,36.95
2023-04-12T03:27:15.342Z,36.20
2023-04-12T03:31:21.099Z,36.88
2023-04-12T03:35:23.473Z,36.97
2023-04-12T03:39:27.125Z,36.38
2023-04-12T03:43:35.778Z,33.47
2023-04-12T03:47:40.735Z,35.25
2023-04-12T03:51:43.891Z,35.38
2023-04-12T03:55:46.188Z,35.85
2023-04-12T03:59:48.173Z,34.67
2023-04-12T04:03:54.252Z,33.80
2023-04-12T04:08:02.319Z,36.33
2023-04-12T04:12:09.894Z,36.00
2023-04-12T04:16:15.358Z,35.55
2023-04-12T04:20:18.827Z,35.13
2023-04-12T04:24:25.254Z,36.70
2023-04-12T04:28:30.578Z,37.95
2023-04-12T04:32:34.065Z,35.85
2023-04-12T04:36:38.188Z,37.42
2023-04-12T04:40:41.296Z,40.97
2023-04-12T04:44:45.095Z,42.03
2023-04-12T04:48:49.158Z,41.90
2023-04-12T04:52:51.265Z,45.22
2023-04-12T04:56:53.998Z,42.70
2023-04-12T05:00:57.662Z,40.17
2023-04-12T05:05:02.428Z,39.47
2023-04-12T05:09:08.089Z,38.70
2023-04-12T05:13:15.369Z,38.30
2023-04-12T05:17:17.365Z,38.88
2023-04-12T05:21:19.880Z,43.22
2023-04-12T05:25:22.563Z,41.75
2023-04-12T05:29:34.414Z,40.03
2023-04-12T05:33:37.448Z,38.85
2023-04-12T05:37:39.556Z,38.72
2023-04-12T05:41:41.596Z,45.95
2023-04-12T05:45:43.764Z,45.28
2023-04-12T05:49:46.052Z,42.90
2023-04-12T05:53:48.080Z,40.15
2023-04-12T05:57:51.493Z,34.38
2023-04-12T06:01:56.176Z,34.50
2023-04-12T06:05:59.303Z,40.45
2023-04-12T06:10:01.462Z,37.83
2023-04-12T06:14:03.545Z,36.30
2023-04-12T06:18:07.578Z,37.22
2023-04-12T06:22:09.734Z,38.40
2023-04-12T06:26:13.456Z,37.53
2023-04-12T06:30:15.877Z,34.33
2023-04-12T06:34:18.108Z,35.72
2023-04-12T06:38:20.846Z,36.95
2023-04-12T06:42:22.941Z,32.60
2023-04-12T06:46:28.901Z,35.40
2023-04-12T06:50:30.974Z,32.03
2023-04-12T06:54:36.309Z,33.80
2023-04-12T06:58:38.451Z,35.42
2023-04-12T07:02:40.799Z,36.28
2023-04-12T07:06:42.955Z,37.90
2023-04-12T07:10:44.996Z,36.03
2023-04-12T07:14:46.986Z,37.03
2023-04-12T07:18:49.103Z,37.10
2023-04-12T07:22:51.467Z,37.63
2023-04-12T07:26:54.896Z,37.45
2023-04-12T07:30:57.074Z,36.28
2023-04-12T07:34:59.293Z,35.78
2023-04-12T07:39:01.349Z,36.10
2023-04-12T07:43:03.399Z,37.78
2023-04-12T07:47:05.591Z,34.05
2023-04-12T07:51:07.572Z,36.80
2023-04-12T07:55:10.177Z,34.75
2023-04-12T07:59:12.492Z,35.90
2023-04-12T08:03:17.027Z,32.72
2023-04-12T08:07:19.950Z,32.97
2023-04-12T08:11:22.230Z,34.88
2023-04-12T08:15:24.548Z,35.40
2023-04-12T08:19:27.531Z,33.75
2023-04-12T08:23:29.998Z,31.08
2023-04-12T08:27:31.578Z,32.10
2023-04-12T08:31:34.289Z,35.45
2023-04-12T08:35:36.405Z,37.08
2023-04-12T08:39:38.366Z,35.22
2023-04-12T08:43:44.445Z,35.45
2023-04-12T08:47:46.808Z,33.88
2023-04-12T08:51:49.413Z,32.65
2023-04-12T08:55:51.968Z,29.60
2023-04-12T08:59:54.934Z,32.55
2023-04-12T09:03:57.539Z,33.00
2023-04-12T09:08:00.160Z,31.25
2023-04-12T09:12:10.518Z,35.00
2023-04-12T09:16:12.698Z,31.92
2023-04-12T09:20:18.095Z,31.35
2023-04-12T09:24:24.059Z,32.38
2023-04-12T09:28:28.020Z,29.02
2023-04-12T09:32:30.241Z,29.52
2023-04-12T09:36:38.590Z,30.92
2023-04-12T09:40:40.673Z,30.85
2023-04-12T09:44:42.837Z,31.55
2023-04-12T09:48:52.895Z,30.88
2023-04-12T09:52:57.342Z,27.38
2023-04-12T09:57:01.080Z,28.83
2023-04-12T10:01:04.872Z,31.17
2023-04-12T10:05:07.505Z,32.15
2023-04-12T10:09:10.271Z,27.90
2023-04-12T10:13:13.834Z,29.65
2023-04-12T10:17:19.065Z,30.50
2023-04-12T10:21:22.802Z,27.38
2023-04-12T10:25:27.231Z,31.33
2023-04-12T10:29:30.297Z,31.27
2023-04-12T10:33:32.603Z,31.05
2023-04-12T10:38:06.075Z,31.80
2023-04-12T10:42:17.206Z,30.40
2023-04-12T10:46:39.083Z,29.83
2023-04-12T10:50:42.171Z,32.47
2023-04-12T10:54:44.660Z,29.15
2023-04-12T10:58:48.925Z,27.70
2023-04-12T11:03:07.849Z,27.77
2023-04-12T11:07:11.959Z,25.70
2023-04-12T11:11:20.362Z,30.50
2023-04-12T11:15:27.058Z,29.95
2023-04-12T11:19:57.865Z,29.25
2023-04-12T11:24:00.356Z,25.13
2023-04-12T11:28:04.140Z,26.90
2023-04-12T11:32:14.189Z,27.38
2023-04-12T11:36:17.694Z,24.75
2023-04-12T11:40:22.672Z,28.30
2023-04-12T11:44:25.289Z,26.25
2023-04-12T11:48:28.651Z,24.38
2023-04-12T11:52:32.759Z,23.80
2023-04-12T11:56:34.820Z,23.42
2023-04-12T12:00:37.542Z,22.58
2023-04-12T12:04:48.928Z,21.90
2023-04-12T12:08:52.319Z,21.27
2023-04-12T12:12:58.036Z,23.25
2023-04-12T12:17:00.604Z,23.90
2023-04-12T12:21:02.894Z,21.05
2023-04-12T12:25:06.095Z,20.90
2023-04-12T12:29:16.596Z,18.45
2023-04-12T12:33:26.832Z,19.88
2023-04-12T12:37:37.623Z,16.98
2023-04-12T12:41:41.061Z,17.50
2023-04-12T12:45:43.654Z,17.45
2023-04-12T12:49:45.993Z,16.98
2023-04-12T12:53:48.598Z,16.30
2023-04-12T12:58:07.553Z,15.30
2023-04-12T13:02:10.693Z,17.65
2023-04-12T13:06:13.093Z,15.65
2023-04-12T13:10:15.308Z,16.30
2023-04-12T13:14:17.228Z,14.63
2023-04-12T13:18:20.131Z,14.63
2023-04-12T13:22:22.611Z,15.00
2023-04-12T13:26:25.781Z,16.67
2023-04-12T13:30:28.283Z,14.85
2023-04-12T13:34:31.526Z,15.05
2023-04-12T13:38:33.613Z,14.82
2023-04-12T13:42:35.892Z,13.70
2023-04-12T13:46:38.008Z,15.73
2023-04-12T13:50:40.167Z,14.25
2023-04-12T13:54:43.438Z,13.30
2023-04-12T13:58:45.774Z,14.05
2023-04-12T14:02:48.077Z,13.57
2023-04-12T14:06:50.119Z,12.85
2023-04-12T14:10:52.572Z,13.80
2023-04-12T14:14:54.806Z,12.63
2023-04-12T14:18:57.149Z,12.93
2023-04-12T14:22:59.428Z,12.40
2023-04-12T14:27:02.464Z,13.68
2023-04-12T14:31:06.566Z,13.05
2023-04-12T14:35:09.752Z,13.13
2023-04-12T14:39:13.903Z,13.15
2023-04-12T14:43:17.071Z,11.30
2023-04-12T14:47:19.340Z,12.27
2023-04-12T14:51:21.842Z,11.85
2023-04-12T14:55:24.200Z,14.75
2023-04-12T14:59:27.508Z,13.60
2023-04-12T15:03:31.577Z,13.65
2023-04-12T15:07:35.093Z,15.10
2023-04-12T15:11:38.214Z,14.35
2023-04-12T15:15:41.794Z,15.18
2023-04-12T15:19:44.146Z,14.10
2023-04-12T15:23:47.452Z,12.60
2023-04-12T15:27:49.586Z,12.63
2023-04-12T15:31:51.801Z,14.35
2023-04-12T15:35:56.603Z,13.65
2023-04-12T15:39:58.726Z,14.77
2023-04-12T15:44:01.267Z,15.13
2023-04-12T15:48:03.676Z,15.73
2023-04-12T15:52:05.928Z,14.45
2023-04-12T15:56:09.254Z,13.55
2023-04-12T16:00:30.789Z,15.23
2023-04-12T16:04:33.578Z,18.35
2023-04-12T16:08:36.164Z,18.75
2023-04-12T16:12:38.386Z,33.05
2023-04-12T16:16:40.688Z,20.63
2023-04-12T16:20:43.032Z,16.95
2023-04-12T16:24:45.205Z,47.25
2023-04-12T16:28:51.816Z,42.05
2023-04-12T16:32:54.730Z,30.95
2023-04-12T16:36:57.609Z,37.47
2023-04-12T16:41:00.148Z,26.83
2023-04-12T16:45:04.526Z,20.27
2023-04-12T16:49:06.771Z,15.13
2023-04-12T16:53:09.044Z,15.00
2023-04-12T16:57:11.803Z,19.05
2023-04-12T17:01:17.256Z,16.27
2023-04-12T17:05:21.900Z,17.70
2023-04-12T17:09:24.084Z,15.48
2023-04-12T17:13:26.762Z,17.88
2023-04-12T17:17:28.886Z,18.70
2023-04-12T17:21:40.849Z,23.27
2023-04-12T17:25:43.370Z,24.05
2023-04-12T17:29:45.525Z,24.33
2023-04-12T17:33:48.087Z,22.27
2023-04-12T17:37:51.365Z,34.95
2023-04-12T17:41:53.697Z,34.40
2023-04-12T17:45:56.020Z,33.08
2023-04-12T17:49:58.173Z,32.38
2023-04-12T17:54:00.841Z,21.30
2023-04-12T17:58:03.480Z,21.45
2023-04-12T18:02:06.087Z,23.17
2023-04-12T18:06:08.647Z,26.05
2023-04-12T18:10:15.397Z,26.88
2023-04-12T18:14:17.800Z,20.42
2023-04-12T18:18:20.320Z,23.30
2023-04-12T18:22:22.820Z,23.13
2023-04-12T18:26:25.138Z,24.33
2023-04-12T18:30:27.645Z,22.08
2023-04-12T18:34:31.065Z,25.75
2023-04-12T18:38:35.703Z,25.13
2023-04-12T18:42:38.040Z,21.52
2023-04-12T18:46:41.053Z,22.17
2023-04-12T18:50:44.633Z,22.15
2023-04-12T18:54:48.193Z,20.23
2023-04-12T18:58:55.695Z,21.02
2023-04-12T19:02:58.469Z,21.70
2023-04-12T19:07:00.511Z,25.60
2023-04-12T19:11:02.779Z,34.60
2023-04-12T19:15:07.147Z,22.33
2023-04-12T19:19:09.536Z,25.33
2023-04-12T19:23:11.706Z,22.98
2023-04-12T19:27:14.330Z,26.80
2023-04-12T19:31:16.498Z,22.42
2023-04-12T19:35:19.077Z,30.75
2023-04-12T19:39:22.779Z,27.35
2023-04-12T19:43:25.841Z,24.33
2023-04-12T19:47:27.976Z,23.75
2023-04-12T19:51:31.386Z,27.58
2023-04-12T19:55:33.509Z,30.45
2023-04-12T19:59:36.754Z,29.95
2023-04-12T20:03:40.558Z,30.92
2023-04-12T20:07:45.895Z,33.85
2023-04-12T20:11:48.246Z,52.42
2023-04-12T20:15:51.093Z,29.70
2023-04-12T20:19:55.331Z,34.28
2023-04-12T20:23:59.168Z,37.22
2023-04-12T20:28:02.745Z,36.80
2023-04-12T20:32:05.015Z,39.45
2023-04-12T20:36:07.416Z,35.75
2023-04-12T20:40:10.068Z,33.75
2023-04-12T20:44:12.335Z,33.45
2023-04-12T20:48:14.428Z,40.38
2023-04-12T20:52:18.492Z,39.50
2023-04-12T20:56:20.488Z,33.10
2023-04-12T21:00:23.539Z,32.92
2023-04-12T21:04:27.845Z,61.80
2023-04-12T21:08:33.741Z,74.57
2023-04-12T21:12:35.742Z,45.72
2023-04-12T21:16:38.703Z,36.78
2023-04-12T21:20:41.032Z,36.78
2023-04-12T21:24:43.308Z,30.98
2023-04-12T21:28:46.097Z,31.85
2023-04-12T21:32:48.248Z,36.90
2023-04-12T21:36:50.850Z,30.55
2023-04-12T21:40:57.195Z,34.65
2023-04-12T21:44:59.152Z,31.63
2023-04-12T21:49:01.204Z,31.00
2023-04-12T21:53:03.395Z,30.35
2023-04-12T21:57:06.153Z,29.15
2023-04-12T22:01:09.426Z,28.60
2023-04-12T22:05:11.794Z,29.40
2023-04-12T22:09:13.570Z,27.75
2023-04-12T22:13:16.020Z,29.35
2023-04-12T22:17:19.320Z,29.63
2023-04-12T22:21:22.833Z,28.02
2023-04-12T22:25:24.924Z,28.27
2023-04-12T22:29:26.940Z,28.55
2023-04-12T22:33:29.938Z,30.70
2023-04-12T22:37:33.485Z,37.95
2023-04-12T22:41:35.531Z,32.85
2023-04-12T22:45:39.401Z,33.03
2023-04-12T22:49:46.311Z,32.72
2023-04-12T22:53:50.279Z,34.58
2023-04-12T22:57:53.123Z,29.95
2023-04-12T23:01:55.182Z,38.70
2023-04-12T23:05:57.344Z,32.85
2023-04-12T23:09:59.409Z,34.17
2023-04-12T23:14:02.501Z,33.50
2023-04-12T23:18:04.618Z,35.97
2023-04-12T23:22:06.671Z,39.33
2023-04-12T23:26:10.785Z,38.40
2023-04-12T23:30:14.597Z,37.03
2023-04-12T23:34:18.840Z,35.70
2023-04-12T23:38:25.954Z,35.38
2023-04-12T23:42:28.573Z,38.80
2023-04-12T23:46:30.790Z,37.72
2023-04-12T23:50:32.848Z,38.35
2023-04-12T23:54:34.539Z,44.38
2023-04-12T23:58:37.917Z,42.58
